Luqa

Airport
ICAO code: 
LMML
Summary
ICAO Region: 
EUR
Territory: 
Location: 
Luqa,
Coordinates: 
Aerial View: 
35° 51' 25.405" N, 14° 28' 40.205" E
Metar
Observation
LMML 190115Z 28004KT 9999 BKN042 10/07 Q1030 NOSIG
Station
Luqa
Date/Time
2022-01-19 01:15:00
Wind direction
280°
Wind speed
04 kts
Lowest cloud amount
broken clouds
Temperature
10°C
Dew point
7°C
Humidity
81%
QNH
1030 hPa
Weather condition
n/a

Description

International airport serving the island of Malta.

Climatology

Dry-summer subtropical ”Mediterranean" climate (Köppen climate classification Csa) - characterized by hot, dry summers and mild winters. During the summer, subtropical high pressure cells dominate, making rainfall unlikely except for the occasional thunderstorm. In the winter, periodic storms bring rain.

Runways

Designator Length Width Surface Rops
5/23 2377 45 ASP Yes/Yes
13/31 3544 60 ASP Yes/Yes
Airport map: 
Aerial View: 

SKYbrary Partners:

Safety knowledge contributed by: